• Join FlightAware (Why Join?)
  • Login
  • US Flag 
03:46AM EDT


 

Airport Tracker/Info


-or-


 

Live Flight TrackerFlight Track Log ✈ EJA646 ✈ 22-Apr-2013 ✈ KBNA - KGSO

Flight Track Log - Related Links

Times and Time Zones

All times are in EDT time to prevent confusion due to time zone crossing. See the EJA646 flight status page for this flight to view local times or setup timezone preferences in your user account.

Time Position Orientation Groundspeed Altitude Reporting Facility
EDT Latitude Longitude Course Direction KTS MPH feet Rate Location/Type
01:27PM 36.1167 -86.6833 180° South 132 152 1,400  Level Nashville TRACON
01:28PM 36.1000 -86.6833 180° South 157 181 2,800 4,020 Climbing Nashville TRACON
01:29PM 36.0667 -86.6167 122° Southeast 204 235 7,100 3,600 Climbing Nashville TRACON
01:30PM 36.0703 -86.5308 87° East 256 295 10,900 2,760 Climbing Memphis Center
01:31PM 36.0711 -86.4256 89° East 294 338 13,300 2,160 Climbing Memphis Center
01:32PM 36.0714 -86.3022 90° East 336 387 15,300 2,340 Climbing Memphis Center
01:34PM 36.0669 -86.0397 91° East 396 456 20,600 2,400 Climbing Atlanta Center
01:35PM 36.0586 -85.9086 94° East 385 443 22,800 2,100 Climbing Atlanta Center
01:36PM 36.0481 -85.7722 95° East 391 450 24,800 1,980 Climbing Atlanta Center
01:37PM 36.0375 -85.6308 95° East 398 458 26,800 1,980 Climbing Atlanta Center
01:38PM 36.0269 -85.4842 95° East 410 472 28,800 1,980 Climbing Atlanta Center
01:39PM 36.0181 -85.3428 94° East 410 472 30,800 1,080 Climbing Atlanta Center
01:40PM 36.0069 -85.1939 95° East 421 484 31,000 60 Climbing Atlanta Center
01:41PM 35.9978 -85.0475 94° East 426 490 31,000  Level Atlanta Center
01:42PM 35.9867 -84.8753 95° East 431 496 31,000  Level Atlanta Center
01:43PM 35.9708 -84.7211 97° East 446 513 31,000  Level Atlanta Center
01:44PM 35.9592 -84.5672 95° East 446 513 31,000  Level Atlanta Center
01:45PM 35.9867 -84.4158 77° East 441 507 31,000  Level Atlanta Center
01:46PM 36.0392 -84.2725 66° East 441 507 31,000  Level Atlanta Center
01:47PM 36.0936 -84.1286 65° Northeast 446 513 31,000  Level Atlanta Center
01:48PM 36.1458 -83.9847 66° East 452 520 31,000  Level Atlanta Center
01:49PM 36.2000 -83.8406 65° Northeast 457 526 31,000  Level Atlanta Center
01:51PM 36.2994 -83.5647 66° East 457 526 31,000  Level Atlanta Center
01:52PM 36.3528 -83.4175 66° East 464 534 31,000  Level Atlanta Center
01:53PM 36.4042 -83.2725 66° East 464 534 31,000  Level Atlanta Center
01:54PM 36.4553 -83.1275 66° East 464 534 31,000 -480 Level Atlanta Center
01:55PM 36.5064 -82.9825 66° East 457 526 30,100 -780 Descending Atlanta Center
01:56PM 36.5572 -82.8422 66° East 452 520 29,500 -840 Descending Atlanta Center
01:57PM 36.6078 -82.6992 66° East 447 514 28,500 -1,020 Descending Atlanta Center
01:58PM 36.6583 -82.5508 67° East 447 514 27,500 -1,020 Descending Atlanta Center
01:59PM 36.7106 -82.4100 65° Northeast 447 514 26,500 -1,020 Descending Atlanta Center
02:00PM 36.7608 -82.2664 66° East 447 514 25,500 -1,200 Descending Atlanta Center
02:01PM 36.7961 -82.1178 73° East 439 505 24,100 -1,500 Descending Atlanta Center
02:02PM 36.7647 -81.9839 106° East 398 458 22,600 -1,500 Descending Atlanta Center
02:03PM 36.7064 -81.8664 122° Southeast 389 448 21,100 -1,500 Descending Atlanta Center
02:04PM 36.7164 -81.7289 85° East 379 436 19,600 -1,080 Descending Atlanta Center
02:05PM 36.6931 -81.5975 102° East 384 442 19,000 -300 Descending Atlanta Center
02:06PM 36.6283 -81.4883 126° Southeast 386 444 19,000  Level Atlanta Center
02:07PM 36.5611 -81.3767 127° Southeast 394 453 19,000  Level Atlanta Center
02:08PM 36.4919 -81.2678 128° Southeast 399 459 19,000 -120 Level Atlanta Center
02:09PM 36.4269 -81.1617 127° Southeast 394 453 18,800 -540 Descending Atlanta Center
02:10PM 36.3619 -81.0558 127° Southeast 388 447 18,000 -1,380 Descending Atlanta Center
02:11PM 36.2903 -80.9400 127° Southeast 388 447 16,100 -2,100 Descending Atlanta Center
02:12PM 36.2272 -80.8369 127° Southeast 388 447 13,800 -2,220 Descending Atlanta Center
02:13PM 36.1639 -80.7364 128° Southeast 382 440 11,700 -1,440 Descending Atlanta Center
02:14PM 36.1256 -80.6300 114° Southeast 359 413 11,000 -360 Descending Atlanta Center
02:15PM 36.1058 -80.5203 103° East 347 399 11,000 -900 Level Atlanta Center
02:16PM 36.0903 -80.4183 101° East 331 381 9,300 -1,860 Descending Atlanta Center
02:17PM 36.0731 -80.3267 103° East 300 345 7,300 -1,980 Descending Atlanta Center
02:18PM 36.0600 -80.2372 100° East 280 322 5,400 -2,100 Descending Atlanta Center
02:19PM 36.0447 -80.1506 102° East 249 287 3,100 -1,200 Descending Atlanta Center
02:20PM 36.0317 -80.0742 102° East 239 275 3,000 -120 Descending Atlanta Center
02:22PM 36.0927 -79.9406 39° Northeast  Level FlightAware Approximate
02:29PM 36.1000 -79.9333 39° Northeast  Level FlightAware Approximate
02:30PM 36.1013 -79.9411 39° Northeast  Level Estimated
02:31PM 36.1000 -79.9333 39° Northeast  Level FlightAware Approximate
02:32PM 36.1013 -79.9411 39° Northeast  Level Estimated